createdAt,value
2022-10-22T00:00:53.469Z,6.83
2022-10-22T00:03:20.893Z,6.80
2022-10-22T00:05:48.792Z,7.03
2022-10-22T00:08:16.039Z,6.30
2022-10-22T00:10:43.334Z,6.73
2022-10-22T00:13:11.203Z,7.90
2022-10-22T00:15:38.736Z,7.40
2022-10-22T00:18:06.154Z,7.33
2022-10-22T00:20:33.543Z,7.80
2022-10-22T00:23:00.908Z,8.07
2022-10-22T00:25:28.327Z,7.50
2022-10-22T00:27:55.563Z,8.10
2022-10-22T00:30:22.808Z,7.97
2022-10-22T00:32:50.083Z,7.80
2022-10-22T00:35:17.513Z,7.80
2022-10-22T00:37:44.857Z,8.13
2022-10-22T00:40:13.061Z,8.47
2022-10-22T00:42:40.429Z,8.30
2022-10-22T00:45:17.261Z,8.47
2022-10-22T00:47:51.012Z,7.60
2022-10-22T00:50:26.887Z,8.07
2022-10-22T00:52:55.613Z,7.57
2022-10-22T00:55:24.689Z,8.50
2022-10-22T00:57:54.621Z,8.50
2022-10-22T01:00:22.184Z,7.80
2022-10-22T01:02:52.313Z,8.00
2022-10-22T01:05:19.798Z,8.27
2022-10-22T01:07:53.943Z,7.97
2022-10-22T01:10:42.423Z,8.23
2022-10-22T01:13:32.980Z,7.87
2022-10-22T01:16:16.324Z,7.23
2022-10-22T01:19:13.247Z,7.50
2022-10-22T01:21:46.386Z,7.63
2022-10-22T01:24:13.593Z,7.27
2022-10-22T01:26:59.063Z,7.30
2022-10-22T01:29:30.506Z,6.90
2022-10-22T01:32:05.895Z,7.27
2022-10-22T01:34:34.514Z,7.17
2022-10-22T01:37:03.362Z,7.37
2022-10-22T01:39:31.399Z,7.50
2022-10-22T01:41:58.886Z,8.87
2022-10-22T01:44:32.063Z,7.80
2022-10-22T01:47:15.856Z,6.73
2022-10-22T01:50:14.001Z,9.17
2022-10-22T01:53:17.724Z,8.07
2022-10-22T01:56:05.366Z,7.47
2022-10-22T01:58:44.828Z,7.93
2022-10-22T02:01:21.940Z,7.73
2022-10-22T02:04:23.142Z,7.50
2022-10-22T02:06:54.869Z,7.07
2022-10-22T02:09:23.706Z,7.00
2022-10-22T02:11:51.927Z,7.07
2022-10-22T02:14:20.596Z,7.40
2022-10-22T02:16:50.485Z,7.03
2022-10-22T02:19:43.585Z,7.40
2022-10-22T02:22:11.222Z,7.43
2022-10-22T02:24:38.844Z,6.63
2022-10-22T02:27:28.561Z,7.00
2022-10-22T02:32:56.512Z,6.97
2022-10-22T02:35:26.438Z,7.47
2022-10-22T02:37:57.036Z,6.73
2022-10-22T02:40:24.901Z,7.77
2022-10-22T02:42:53.040Z,7.70
2022-10-22T02:45:21.580Z,7.57
2022-10-22T02:47:49.335Z,7.77
2022-10-22T02:50:16.780Z,8.13
2022-10-22T02:52:44.309Z,7.20
2022-10-22T02:55:11.678Z,7.17
2022-10-22T02:57:39.329Z,7.40
2022-10-22T03:00:09.094Z,7.30
2022-10-22T03:02:36.401Z,7.43
2022-10-22T03:05:04.786Z,7.63
2022-10-22T03:07:32.097Z,7.00
2022-10-22T03:09:59.484Z,7.93
2022-10-22T03:12:26.699Z,7.67
2022-10-22T03:14:54.038Z,7.40
2022-10-22T03:17:21.320Z,7.57
2022-10-22T03:19:48.550Z,7.90
2022-10-22T03:22:23.533Z,7.37
2022-10-22T03:24:54.560Z,7.50
2022-10-22T03:27:23.161Z,7.40
2022-10-22T03:29:51.921Z,7.70
2022-10-22T03:32:19.344Z,8.40
2022-10-22T03:34:46.722Z,8.50
2022-10-22T03:37:14.434Z,8.03
2022-10-22T03:39:41.972Z,7.57
2022-10-22T03:42:09.436Z,8.60
2022-10-22T03:44:38.934Z,8.43
2022-10-22T03:47:07.070Z,7.80
2022-10-22T03:49:34.286Z,7.27
2022-10-22T03:52:13.494Z,7.53
2022-10-22T03:54:42.425Z,7.97
2022-10-22T03:57:10.607Z,8.80
2022-10-22T03:59:40.558Z,8.67
2022-10-22T04:02:08.959Z,8.10
2022-10-22T04:04:37.203Z,8.57
2022-10-22T04:07:05.680Z,7.90
2022-10-22T04:09:34.233Z,7.93
2022-10-22T04:12:01.911Z,7.83
2022-10-22T04:14:29.151Z,7.93
2022-10-22T04:16:56.402Z,7.13
2022-10-22T04:19:23.953Z,8.13
2022-10-22T04:21:51.331Z,8.17
2022-10-22T04:24:18.545Z,7.50
2022-10-22T04:26:45.791Z,6.83
2022-10-22T04:29:15.999Z,7.67
2022-10-22T04:31:43.778Z,8.53
2022-10-22T04:34:11.162Z,8.20
2022-10-22T04:36:38.404Z,7.93
2022-10-22T04:39:06.733Z,8.23
2022-10-22T04:41:37.221Z,7.73
2022-10-22T04:44:05.869Z,7.67
2022-10-22T04:46:35.556Z,11.93
2022-10-22T04:49:04.080Z,8.30
2022-10-22T04:51:32.341Z,9.10
2022-10-22T04:53:59.618Z,8.50
2022-10-22T04:56:29.717Z,8.30
2022-10-22T04:58:59.510Z,7.67
2022-10-22T05:01:33.895Z,8.27
2022-10-22T05:04:03.630Z,7.40
2022-10-22T05:06:33.467Z,7.57
2022-10-22T05:09:05.860Z,7.43
2022-10-22T05:11:36.524Z,7.87
2022-10-22T05:14:06.107Z,8.00
2022-10-22T05:16:34.901Z,8.43
2022-10-22T05:19:03.385Z,8.43
2022-10-22T05:21:30.824Z,8.57
2022-10-22T05:24:01.508Z,8.93
2022-10-22T05:26:29.787Z,8.23
2022-10-22T05:28:57.845Z,8.90
2022-10-22T05:31:25.464Z,8.50
2022-10-22T05:33:52.707Z,8.27
2022-10-22T05:36:21.206Z,8.40
2022-10-22T05:38:49.284Z,8.63
2022-10-22T05:41:24.991Z,8.80
2022-10-22T05:43:55.883Z,8.67
2022-10-22T05:46:25.073Z,8.00
2022-10-22T05:49:00.758Z,8.53
2022-10-22T05:51:30.659Z,9.27
2022-10-22T05:54:00.348Z,7.97
2022-10-22T05:56:29.473Z,9.07
2022-10-22T05:58:57.088Z,8.63
2022-10-22T06:01:27.526Z,8.67
2022-10-22T06:03:59.751Z,9.63
2022-10-22T06:06:38.272Z,9.60
2022-10-22T06:09:13.886Z,11.83
2022-10-22T06:11:41.214Z,13.67
2022-10-22T06:14:09.880Z,10.73
2022-10-22T06:16:37.618Z,10.23
2022-10-22T06:19:05.313Z,9.43
2022-10-22T06:21:32.909Z,10.70
2022-10-22T06:24:02.292Z,9.77
2022-10-22T06:26:30.067Z,10.23
2022-10-22T06:28:58.174Z,9.10
2022-10-22T06:31:26.344Z,9.33
2022-10-22T06:33:53.831Z,11.53
2022-10-22T06:36:23.253Z,11.60
2022-10-22T06:38:54.756Z,10.70
2022-10-22T06:41:24.388Z,8.90
2022-10-22T06:43:54.892Z,9.83
2022-10-22T06:46:22.834Z,10.00
2022-10-22T06:48:55.566Z,9.80
2022-10-22T06:51:23.227Z,10.20
2022-10-22T06:53:50.763Z,9.63
2022-10-22T06:56:21.151Z,10.17
2022-10-22T06:58:52.771Z,9.83
2022-10-22T07:01:23.629Z,10.70
2022-10-22T07:03:52.283Z,10.23
2022-10-22T07:06:20.584Z,11.07
2022-10-22T07:08:48.014Z,9.33
2022-10-22T07:11:24.577Z,9.07
2022-10-22T07:13:54.755Z,9.10
2022-10-22T07:16:23.596Z,9.30
2022-10-22T07:18:53.063Z,9.07
2022-10-22T07:21:22.804Z,9.80
2022-10-22T07:23:50.148Z,9.73
2022-10-22T07:26:20.294Z,9.37
2022-10-22T07:28:48.344Z,9.47
2022-10-22T07:31:17.904Z,9.77
2022-10-22T07:33:45.882Z,8.53
2022-10-22T07:36:17.876Z,9.93
2022-10-22T07:38:47.014Z,9.73
2022-10-22T07:41:16.066Z,9.27
2022-10-22T07:43:43.729Z,9.67
2022-10-22T07:46:11.257Z,10.00
2022-10-22T07:48:39.821Z,10.20
2022-10-22T07:51:07.442Z,9.70
2022-10-22T07:53:35.228Z,9.80
2022-10-22T07:56:02.889Z,9.77
2022-10-22T07:58:30.540Z,10.33
2022-10-22T08:01:01.061Z,10.43
2022-10-22T08:03:29.186Z,10.20
2022-10-22T08:05:56.574Z,10.23
2022-10-22T08:08:27.126Z,11.63
2022-10-22T08:10:59.372Z,10.17
2022-10-22T08:13:27.946Z,9.80
2022-10-22T08:15:57.514Z,9.67
2022-10-22T08:18:25.595Z,9.70
2022-10-22T08:20:53.551Z,10.07
2022-10-22T08:23:25.849Z,9.93
2022-10-22T08:25:56.999Z,9.77
2022-10-22T08:28:24.589Z,10.70
2022-10-22T08:30:51.953Z,9.87
2022-10-22T08:33:19.338Z,10.20
2022-10-22T08:35:51.370Z,10.40
2022-10-22T08:38:19.485Z,10.37
2022-10-22T08:40:58.697Z,10.37
2022-10-22T08:43:50.730Z,11.10
2022-10-22T08:46:55.562Z,11.10
2022-10-22T08:49:30.270Z,10.83
2022-10-22T08:51:59.308Z,11.17
2022-10-22T08:54:54.684Z,11.07
2022-10-22T08:58:03.210Z,10.27
2022-10-22T09:00:47.842Z,10.70
2022-10-22T09:03:15.194Z,11.00
2022-10-22T09:06:18.692Z,11.30
2022-10-22T09:08:47.490Z,10.63
2022-10-22T09:11:34.619Z,11.60
2022-10-22T09:14:03.651Z,11.77
2022-10-22T09:16:47.190Z,11.33
2022-10-22T09:19:51.790Z,11.47
2022-10-22T09:22:28.289Z,11.47
2022-10-22T09:25:19.025Z,11.63
2022-10-22T09:27:47.047Z,11.93
2022-10-22T09:30:21.402Z,12.40
2022-10-22T09:33:18.242Z,13.00
2022-10-22T09:35:58.464Z,11.93
2022-10-22T09:38:29.610Z,11.53
2022-10-22T09:40:59.294Z,11.07
2022-10-22T09:43:26.886Z,11.83
2022-10-22T09:46:00.072Z,12.90
2022-10-22T09:48:34.588Z,13.00
2022-10-22T09:51:22.081Z,12.40
2022-10-22T09:54:01.606Z,12.17
2022-10-22T09:56:35.332Z,13.97
2022-10-22T09:59:03.529Z,11.90
2022-10-22T10:01:38.620Z,14.97
2022-10-22T10:04:11.842Z,12.50
2022-10-22T10:06:43.392Z,13.70
2022-10-22T10:09:22.482Z,13.97
2022-10-22T10:11:52.587Z,18.43
2022-10-22T10:14:40.689Z,15.37
2022-10-22T10:17:19.216Z,14.10
2022-10-22T10:20:24.667Z,12.83
2022-10-22T10:23:10.694Z,14.87
2022-10-22T10:25:42.332Z,17.30
2022-10-22T10:28:18.857Z,18.87
2022-10-22T10:31:00.507Z,13.57
2022-10-22T10:33:57.162Z,11.93
2022-10-22T10:36:42.813Z,13.47
2022-10-22T10:39:27.940Z,15.47
2022-10-22T10:42:20.158Z,13.87
2022-10-22T10:44:50.653Z,14.60
2022-10-22T10:47:56.198Z,12.67
2022-10-22T10:50:49.051Z,20.97
2022-10-22T10:53:25.254Z,16.13
2022-10-22T10:56:39.063Z,13.50
2022-10-22T10:59:18.381Z,12.60
2022-10-22T11:01:56.732Z,11.63
2022-10-22T11:04:42.429Z,14.30
2022-10-22T11:07:34.372Z,13.40
2022-10-22T11:10:37.193Z,14.77
2022-10-22T11:13:17.280Z,12.57
2022-10-22T11:15:52.168Z,12.83
2022-10-22T11:18:32.746Z,12.93
2022-10-22T11:21:06.854Z,12.93
2022-10-22T11:23:49.744Z,12.30
2022-10-22T11:26:37.364Z,12.47
2022-10-22T11:29:11.673Z,12.53
2022-10-22T11:31:40.062Z,12.53
2022-10-22T11:34:34.611Z,12.03
2022-10-22T11:37:04.751Z,12.57
2022-10-22T11:39:35.020Z,12.27
2022-10-22T11:42:05.400Z,11.83
2022-10-22T11:44:57.664Z,12.63
2022-10-22T11:47:26.604Z,12.10
2022-10-22T11:49:58.218Z,15.53
2022-10-22T11:52:28.524Z,11.80
2022-10-22T11:54:58.040Z,12.53
2022-10-22T11:57:39.346Z,12.47
2022-10-22T12:00:31.564Z,23.93
2022-10-22T12:03:23.607Z,14.77
2022-10-22T12:06:12.225Z,12.63
2022-10-22T12:08:48.923Z,11.73
2022-10-22T12:11:19.290Z,12.80
2022-10-22T12:14:01.566Z,13.17
2022-10-22T12:16:56.992Z,12.20
2022-10-22T12:19:36.432Z,12.80
2022-10-22T12:22:06.888Z,12.70
2022-10-22T12:24:40.826Z,11.87
2022-10-22T12:27:38.956Z,13.77
2022-10-22T12:30:27.843Z,13.20
2022-10-22T12:33:03.097Z,12.63
2022-10-22T12:35:33.690Z,12.90
2022-10-22T12:38:05.132Z,13.70
2022-10-22T12:40:35.380Z,14.27
2022-10-22T12:43:11.935Z,13.07
2022-10-22T12:45:42.720Z,13.03
2022-10-22T12:48:20.382Z,13.80
2022-10-22T12:50:54.698Z,13.83
2022-10-22T12:53:27.238Z,14.33
2022-10-22T12:55:56.340Z,12.50
2022-10-22T12:58:29.099Z,10.53
2022-10-22T13:00:59.266Z,10.10
2022-10-22T13:03:34.374Z,8.83
2022-10-22T13:06:25.861Z,8.27
2022-10-22T13:09:06.212Z,2.90
2022-10-22T13:11:42.593Z,2.80
2022-10-22T13:14:25.430Z,2.27
2022-10-22T13:17:11.672Z,2.00
2022-10-22T13:19:52.937Z,2.13
2022-10-22T13:22:35.204Z,2.17
2022-10-22T13:25:19.485Z,5.83
2022-10-22T13:28:03.004Z,2.67
2022-10-22T13:30:31.985Z,2.30
2022-10-22T13:33:02.291Z,2.13
2022-10-22T13:35:38.676Z,1.53
2022-10-22T13:38:20.422Z,2.00
2022-10-22T13:40:48.018Z,1.50
2022-10-22T13:43:17.079Z,2.10
2022-10-22T13:45:46.941Z,1.50
2022-10-22T13:48:16.740Z,2.40
2022-10-22T13:50:44.072Z,1.40
2022-10-22T13:53:19.164Z,1.60
2022-10-22T13:55:46.872Z,1.77
2022-10-22T13:58:19.974Z,2.00
2022-10-22T14:00:51.262Z,2.40
2022-10-22T14:03:22.204Z,1.73
2022-10-22T14:05:49.572Z,1.20
2022-10-22T14:08:19.936Z,1.60
2022-10-22T14:10:47.598Z,1.53
2022-10-22T14:13:17.092Z,2.83
2022-10-22T14:15:46.973Z,1.57
2022-10-22T14:18:24.321Z,1.90
2022-10-22T14:20:53.858Z,1.90
2022-10-22T14:23:23.462Z,2.40
2022-10-22T14:25:53.513Z,3.43
2022-10-22T14:28:20.743Z,2.13
2022-10-22T14:30:48.577Z,2.77
2022-10-22T14:33:17.196Z,2.90
2022-10-22T14:35:45.131Z,4.27
2022-10-22T14:38:12.425Z,8.97
2022-10-22T14:40:41.907Z,5.40
2022-10-22T14:43:25.862Z,6.20
2022-10-22T14:45:53.290Z,5.13
2022-10-22T14:48:20.661Z,4.90
2022-10-22T14:50:48.638Z,2.57
2022-10-22T14:53:16.833Z,2.80
2022-10-22T14:55:47.080Z,2.63
2022-10-22T14:58:15.108Z,2.10
2022-10-22T15:00:43.574Z,2.07
2022-10-22T15:03:11.755Z,1.77
2022-10-22T15:05:44.408Z,2.50
2022-10-22T15:08:14.588Z,1.90
2022-10-22T15:10:42.075Z,1.77
2022-10-22T15:13:09.789Z,1.40
2022-10-22T15:15:40.285Z,1.30
2022-10-22T15:18:08.226Z,1.30
2022-10-22T15:20:36.095Z,1.30
2022-10-22T15:23:03.530Z,3.13
2022-10-22T15:25:30.843Z,11.37
2022-10-22T15:28:00.750Z,2.57
2022-10-22T15:30:35.007Z,2.20
2022-10-22T15:33:02.508Z,1.63
2022-10-22T15:35:29.889Z,2.50
2022-10-22T15:37:57.131Z,1.83
2022-10-22T15:40:24.387Z,2.57
2022-10-22T15:42:51.753Z,3.30
2022-10-22T15:45:21.318Z,3.63
2022-10-22T15:47:49.215Z,3.20
2022-10-22T15:50:17.360Z,2.77
2022-10-22T15:52:44.604Z,2.47
2022-10-22T15:57:39.666Z,2.87
2022-10-22T16:00:09.018Z,2.70
2022-10-22T16:02:42.622Z,1.90
2022-10-22T16:05:10.089Z,2.70
2022-10-22T16:07:37.717Z,6.73
2022-10-22T16:10:07.689Z,4.37
2022-10-22T16:12:36.153Z,4.20
2022-10-22T16:15:04.090Z,4.30
2022-10-22T16:17:31.619Z,6.30
2022-10-22T16:19:59.111Z,7.93
2022-10-22T16:22:26.366Z,6.63
2022-10-22T16:24:53.948Z,7.90
2022-10-22T16:27:21.232Z,8.40
2022-10-22T16:29:49.047Z,5.77
2022-10-22T16:32:16.946Z,12.37
2022-10-22T16:34:44.334Z,6.57
2022-10-22T16:37:11.788Z,6.87
2022-10-22T16:39:39.049Z,13.53
2022-10-22T16:42:06.736Z,13.53
2022-10-22T16:44:34.104Z,3.40
2022-10-22T16:47:01.563Z,2.40
2022-10-22T16:49:29.004Z,2.50
2022-10-22T16:51:56.469Z,4.33
2022-10-22T16:54:23.721Z,2.10
2022-10-22T16:56:51.454Z,1.40
2022-10-22T16:59:18.892Z,1.40
2022-10-22T17:01:46.133Z,1.30
2022-10-22T17:04:13.339Z,1.50
2022-10-22T17:06:40.549Z,1.77
2022-10-22T17:09:07.982Z,1.40
2022-10-22T17:11:37.268Z,1.70
2022-10-22T17:14:06.540Z,1.17
2022-10-22T17:16:33.782Z,1.20
2022-10-22T17:19:03.787Z,1.90
2022-10-22T17:21:31.112Z,2.20
2022-10-22T17:23:58.779Z,1.50
2022-10-22T17:26:26.888Z,1.93
2022-10-22T17:28:55.367Z,2.63
2022-10-22T17:31:31.703Z,6.93
2022-10-22T17:34:00.046Z,5.37
2022-10-22T17:36:31.853Z,3.40
2022-10-22T17:39:04.208Z,6.50
2022-10-22T17:41:33.507Z,5.13
2022-10-22T17:44:04.001Z,4.43
2022-10-22T17:46:32.641Z,11.60
2022-10-22T17:49:03.460Z,6.47
2022-10-22T17:51:32.196Z,4.13
2022-10-22T17:53:59.618Z,2.17
2022-10-22T17:56:31.961Z,6.53
2022-10-22T17:59:02.382Z,3.20
2022-10-22T18:01:32.397Z,2.70
2022-10-22T18:04:02.691Z,6.60
2022-10-22T18:06:30.122Z,3.93
2022-10-22T18:08:57.576Z,3.60
2022-10-22T18:11:26.954Z,19.73
2022-10-22T18:13:56.946Z,17.37
2022-10-22T18:16:25.403Z,6.03
2022-10-22T18:18:54.780Z,4.90
2022-10-22T18:21:23.715Z,4.53
2022-10-22T18:23:51.545Z,5.33
2022-10-22T18:26:21.578Z,4.30
2022-10-22T18:28:51.747Z,2.10
2022-10-22T18:31:22.090Z,2.07
2022-10-22T18:33:49.549Z,2.93
2022-10-22T18:36:19.608Z,3.60
2022-10-22T18:38:57.741Z,2.40
2022-10-22T18:41:26.572Z,3.40
2022-10-22T18:43:56.457Z,5.63
2022-10-22T18:46:24.351Z,8.60
2022-10-22T18:48:56.064Z,3.90
2022-10-22T18:51:25.094Z,11.33
2022-10-22T18:54:05.529Z,13.00
2022-10-22T18:56:42.515Z,15.83
2022-10-22T18:59:20.488Z,6.90
2022-10-22T19:01:49.309Z,4.07
2022-10-22T19:04:17.614Z,4.30
2022-10-22T19:06:45.964Z,6.47
2022-10-22T19:09:15.573Z,5.43
2022-10-22T19:11:45.377Z,2.20
2022-10-22T19:14:14.720Z,2.27
2022-10-22T19:16:41.984Z,16.63
2022-10-22T19:19:09.240Z,7.50
2022-10-22T19:21:38.240Z,5.63
2022-10-22T19:24:05.947Z,2.27
2022-10-22T19:26:33.599Z,3.23
2022-10-22T19:29:01.641Z,2.10
2022-10-22T19:31:31.382Z,2.00
2022-10-22T19:34:02.955Z,4.73
2022-10-22T19:36:32.603Z,2.97
2022-10-22T19:39:00.862Z,2.80
2022-10-22T19:41:30.086Z,4.17
2022-10-22T19:43:58.765Z,3.87
2022-10-22T19:46:27.943Z,2.20
2022-10-22T19:48:58.179Z,3.60
2022-10-22T19:51:29.880Z,3.03
2022-10-22T19:54:00.177Z,5.10
2022-10-22T19:56:28.694Z,6.00
2022-10-22T19:58:56.431Z,8.30
2022-10-22T20:01:23.798Z,8.57
2022-10-22T20:03:51.575Z,7.60
2022-10-22T20:06:18.866Z,3.83
2022-10-22T20:08:46.844Z,4.50
2022-10-22T20:11:23.108Z,5.03
2022-10-22T20:13:52.320Z,3.67
2022-10-22T20:16:23.179Z,4.50
2022-10-22T20:18:51.899Z,4.77
2022-10-22T20:21:20.115Z,4.17
2022-10-22T20:23:51.043Z,4.27
2022-10-22T20:26:18.465Z,6.83
2022-10-22T20:28:45.668Z,4.83
2022-10-22T20:31:17.578Z,3.33
2022-10-22T20:33:44.797Z,2.90
2022-10-22T20:36:23.007Z,2.47
2022-10-22T20:38:51.723Z,2.20
2022-10-22T20:41:23.188Z,2.20
2022-10-22T20:43:51.717Z,2.10
2022-10-22T20:46:26.499Z,1.90
2022-10-22T20:48:56.794Z,2.20
2022-10-22T20:51:24.517Z,1.93
2022-10-22T20:53:51.947Z,2.10
2022-10-22T20:56:19.953Z,2.17
2022-10-22T20:58:48.887Z,2.50
2022-10-22T21:01:24.347Z,2.33
2022-10-22T21:03:52.818Z,2.53
2022-10-22T21:06:23.302Z,2.33
2022-10-22T21:08:51.927Z,2.43
2022-10-22T21:11:20.420Z,2.07
2022-10-22T21:13:48.013Z,2.30
2022-10-22T21:16:18.631Z,2.70
2022-10-22T21:18:46.991Z,2.90
2022-10-22T21:21:17.083Z,2.83
2022-10-22T21:23:44.599Z,3.07
2022-10-22T21:26:12.571Z,3.10
2022-10-22T21:28:40.039Z,2.80
2022-10-22T21:31:10.032Z,3.30
2022-10-22T21:33:38.819Z,2.60
2022-10-22T21:36:07.232Z,2.60
2022-10-22T21:38:36.091Z,2.60
2022-10-22T21:41:08.540Z,2.60
2022-10-22T21:43:40.366Z,2.63
2022-10-22T21:46:10.119Z,2.57
2022-10-22T21:48:38.640Z,2.80
2022-10-22T21:51:17.948Z,2.50
2022-10-22T21:53:45.635Z,2.20
2022-10-22T21:56:24.329Z,2.10
2022-10-22T21:58:51.702Z,2.27
2022-10-22T22:01:19.593Z,2.13
2022-10-22T22:03:51.643Z,2.10
2022-10-22T22:06:21.972Z,1.87
2022-10-22T22:08:51.759Z,3.50
2022-10-22T22:11:24.604Z,4.77
2022-10-22T22:13:54.193Z,9.47
2022-10-22T22:16:27.279Z,3.33
2022-10-22T22:18:59.137Z,3.57
2022-10-22T22:21:26.529Z,3.40
2022-10-22T22:23:54.353Z,3.00
2022-10-22T22:26:28.461Z,5.07
2022-10-22T22:28:59.317Z,9.73
2022-10-22T22:31:32.309Z,6.77
2022-10-22T22:34:06.863Z,5.10
2022-10-22T22:36:40.204Z,5.10
2022-10-22T22:39:10.502Z,4.83
2022-10-22T22:41:38.128Z,4.33
2022-10-22T22:44:05.752Z,3.80
2022-10-22T22:46:33.271Z,4.30
2022-10-22T22:49:00.519Z,4.67
2022-10-22T22:51:27.935Z,4.20
2022-10-22T22:53:57.827Z,4.17
2022-10-22T22:56:27.872Z,4.43
2022-10-22T22:58:55.744Z,4.27
2022-10-22T23:01:26.095Z,3.77
2022-10-22T23:04:11.505Z,3.37
2022-10-22T23:06:39.438Z,4.27
2022-10-22T23:09:09.975Z,4.00
2022-10-22T23:11:37.451Z,3.60
2022-10-22T23:14:06.643Z,3.70
2022-10-22T23:16:36.916Z,4.10
2022-10-22T23:19:05.301Z,3.90
2022-10-22T23:21:35.763Z,3.70
2022-10-22T23:24:06.854Z,3.00
2022-10-22T23:26:40.003Z,2.70
2022-10-22T23:29:11.586Z,2.90
2022-10-22T23:31:39.230Z,3.07
2022-10-22T23:34:07.840Z,3.00
2022-10-22T23:36:37.264Z,3.17
2022-10-22T23:39:06.644Z,2.73
2022-10-22T23:41:34.229Z,2.83
2022-10-22T23:44:02.606Z,1.97
2022-10-22T23:46:30.007Z,1.93
2022-10-22T23:48:57.393Z,1.97
2022-10-22T23:51:24.773Z,1.33
2022-10-22T23:54:00.782Z,1.70
2022-10-22T23:56:29.459Z,1.50
2022-10-22T23:58:57.308Z,1.47
